Time;durP1;ratioP1;P1;durP2;ratioP2;P2;SDS_P1;SDS_P2;PMS_P1;PMS_P2;Temp;Humidity;BMP_temperature;BMP_pressure;BME280_temperature;BME280_humidity;BME280_pressure;Samples;Min_cycle;Max_cycle;Signal;HPM_P1;HPM_P2
2023/10/05 00:02:56;;;;;;;1.55;0.43;;;14.40;99.90;;;;;;5016135;28;20042;-76
2023/10/05 00:05:23;;;;;;;0.00;0.00;;;14.30;99.90;;;;;;5016700;28;20108;-76
2023/10/05 00:07:49;;;;;;;5.70;1.17;;;14.30;99.90;;;;;;5016686;28;20038;-76
2023/10/05 00:10:15;;;;;;;1.42;0.40;;;14.20;99.90;;;;;;5016076;28;20046;-77
2023/10/05 00:12:41;;;;;;;2.75;0.88;;;14.20;99.90;;;;;;5016534;28;20034;-76
2023/10/05 00:17:36;;;;;;;0.47;0.47;;;14.20;99.90;;;;;;5016384;28;20022;-77
2023/10/05 00:20:19;;;;;;;1.05;0.88;;;14.20;99.90;;;;;;5016278;28;20383;-77
2023/10/05 00:22:45;;;;;;;0.10;0.10;;;14.20;99.90;;;;;;5016360;28;20470;-76
2023/10/05 00:25:11;;;;;;;8.98;1.13;;;14.20;99.90;;;;;;5014631;28;20076;-76
2023/10/05 00:27:37;;;;;;;0.52;0.35;;;14.20;99.90;;;;;;5016525;28;20042;-76
2023/10/05 00:30:06;;;;;;;0.10;0.10;;;14.20;99.90;;;;;;5016081;28;20049;-77
2023/10/05 00:32:36;;;;;;;0.05;0.05;;;14.20;99.90;;;;;;5015987;28;20386;-76
2023/10/05 00:37:44;;;;;;;0.75;0.68;;;14.30;99.90;;;;;;5015615;28;20474;-76
2023/10/05 00:40:12;;;;;;;0.10;0.10;;;14.30;99.90;;;;;;5030871;28;20122;-77
2023/10/05 00:42:38;;;;;;;11.35;1.50;;;14.10;99.90;;;;;;5015552;28;20080;-76
2023/10/05 00:45:11;;;;;;;0.00;0.00;;;14.20;99.90;;;;;;5031161;28;20445;-77
2023/10/05 00:47:38;;;;;;;0.00;0.00;;;14.30;99.90;;;;;;5015426;28;20113;-76
2023/10/05 00:50:04;;;;;;;0.47;0.47;;;14.20;99.90;;;;;;5014499;28;20029;-76
2023/10/05 00:52:30;;;;;;;0.30;0.30;;;14.10;99.90;;;;;;5014510;28;20079;-76
2023/10/05 00:54:58;;;;;;;0.00;0.00;;;14.10;99.90;;;;;;5014363;28;20103;-77
2023/10/05 00:57:24;;;;;;;0.60;0.60;;;14.00;99.90;;;;;;5015638;28;20459;-76
2023/10/05 01:02:32;;;;;;;5.82;1.02;;;14.10;99.90;;;;;;5015534;28;20033;-76
2023/10/05 01:05:15;;;;;;;0.28;0.28;;;14.10;99.90;;;;;;5015489;28;20018;-76
2023/10/05 01:12:50;;;;;;;1.17;0.43;;;14.00;99.90;;;;;;5029435;28;20506;-76
2023/10/05 01:15:21;;;;;;;1.85;0.75;;;14.00;99.90;;;;;;5014873;28;20022;-77
2023/10/05 01:17:51;;;;;;;0.43;0.43;;;13.90;99.90;;;;;;5030560;28;20037;-76
2023/10/05 01:22:47;;;;;;;0.10;0.10;;;13.80;99.90;;;;;;5030466;28;20475;-77
2023/10/05 01:25:14;;;;;;;0.20;0.20;;;13.80;99.90;;;;;;5014094;28;20391;-77
2023/10/05 01:27:43;;;;;;;0.05;0.05;;;13.90;99.90;;;;;;5013600;28;20033;-77
2023/10/05 01:30:12;;;;;;;1.75;0.75;;;14.10;99.90;;;;;;5013744;28;20486;-77
2023/10/05 01:32:43;;;;;;;0.20;0.20;;;13.90;99.90;;;;;;5013435;28;20403;-77
2023/10/05 01:35:12;;;;;;;0.47;0.45;;;13.80;99.90;;;;;;5015214;28;20041;-76
2023/10/05 01:37:44;;;;;;;0.00;0.00;;;13.80;99.90;;;;;;5014675;28;20022;-77
2023/10/05 01:42:51;;;;;;;0.32;0.32;;;13.80;99.90;;;;;;5014771;28;20093;-77
2023/10/05 01:45:38;;;;;;;0.10;0.10;;;14.00;99.90;;;;;;5014573;28;20030;-77
2023/10/05 01:48:12;;;;;;;3.22;0.63;;;13.90;99.90;;;;;;5014431;28;20037;-77
2023/10/05 01:50:39;;;;;;;0.05;0.05;;;14.10;99.90;;;;;;5014649;28;20033;-77
2023/10/05 01:53:11;;;;;;;0.95;0.57;;;14.20;99.90;;;;;;5014626;28;20033;-77
2023/10/05 01:55:39;;;;;;;0.00;0.00;;;14.30;99.90;;;;;;5013620;28;20045;-77
2023/10/05 01:58:07;;;;;;;0.10;0.10;;;14.40;99.90;;;;;;5012888;28;20390;-77
2023/10/05 02:00:37;;;;;;;0.28;0.25;;;14.10;99.90;;;;;;5013145;28;20025;-77
2023/10/05 02:03:07;;;;;;;4.20;0.82;;;14.00;99.90;;;;;;5014331;28;20041;-77
2023/10/05 02:05:34;;;;;;;0.70;0.50;;;13.90;99.90;;;;;;5014495;28;20033;-76
2023/10/05 02:08:00;;;;;;;4.65;0.95;;;14.10;99.90;;;;;;5014375;28;20033;-77
2023/10/05 02:10:32;;;;;;;1.20;0.43;;;14.10;99.90;;;;;;5000730;28;20034;-77
2023/10/05 02:13:01;;;;;;;1.13;1.13;;;14.10;99.90;;;;;;5013910;28;20034;-77
2023/10/05 02:15:30;;;;;;;4.18;0.50;;;14.30;99.90;;;;;;5012826;28;20466;-77
2023/10/05 02:17:59;;;;;;;2.20;0.63;;;14.10;99.90;;;;;;5012914;28;20133;-77
2023/10/05 02:22:58;;;;;;;0.10;0.10;;;14.00;99.90;;;;;;5013918;28;20379;-77
2023/10/05 02:25:33;;;;;;;0.08;0.08;;;14.20;99.90;;;;;;5013942;28;20079;-77
2023/10/05 02:27:59;;;;;;;0.00;0.00;;;14.10;99.90;;;;;;5012400;28;20496;-77
2023/10/05 02:30:27;;;;;;;0.15;0.15;;;14.10;99.90;;;;;;5013638;28;20386;-77
2023/10/05 02:32:55;;;;;;;18.48;0.50;;;14.30;99.90;;;;;;5025547;28;20033;-77
2023/10/05 02:35:33;;;;;;;0.03;0.03;;;14.20;99.90;;;;;;4995466;28;20161;-77
2023/10/05 02:38:04;;;;;;;0.00;0.00;;;14.30;99.90;;;;;;4993480;28;20023;-77
2023/10/05 02:40:41;;;;;;;;;;;14.20;99.90;;;;;;5007603;28;20382;-77
2023/10/05 02:43:08;;;;;;;0.38;0.38;;;14.10;99.90;;;;;;5002940;28;19914;-76
2023/10/05 02:45:37;;;;;;;0.15;0.15;;;14.10;99.90;;;;;;5012337;28;20014;-76
2023/10/05 02:48:09;;;;;;;0.30;0.30;;;14.00;99.90;;;;;;5012529;28;20053;-76
2023/10/05 02:50:38;;;;;;;6.43;0.85;;;14.10;99.90;;;;;;5012196;28;20030;-76
2023/10/05 02:53:08;;;;;;;0.10;0.10;;;14.10;99.90;;;;;;5013645;28;20020;-76
2023/10/05 02:55:37;;;;;;;0.00;0.00;;;14.10;99.90;;;;;;5013716;28;20030;-77
2023/10/05 02:58:04;;;;;;;0.80;0.57;;;14.20;99.90;;;;;;5012069;28;20430;-77
2023/10/05 03:00:33;;;;;;;0.90;0.55;;;14.20;99.90;;;;;;5028358;28;20026;-77
2023/10/05 03:03:03;;;;;;;3.10;0.20;;;14.20;99.90;;;;;;5013285;28;20057;-77
2023/10/05 03:05:32;;;;;;;0.57;0.43;;;14.20;99.90;;;;;;5013237;28;20022;-77
2023/10/05 03:07:59;;;;;;;0.30;0.30;;;14.20;99.90;;;;;;5028733;28;20033;-77
2023/10/05 03:10:25;;;;;;;0.10;0.10;;;14.20;99.90;;;;;;5027924;28;20486;-77
2023/10/05 03:12:50;;;;;;;1.83;0.90;;;14.10;99.90;;;;;;5028598;28;20041;-77
2023/10/05 03:15:22;;;;;;;20.27;0.55;;;14.00;99.90;;;;;;5011936;28;20030;-77
2023/10/05 03:17:51;;;;;;;4.93;1.50;;;14.00;99.90;;;;;;5028625;28;20040;-76
2023/10/05 03:20:18;;;;;;;4.13;1.17;;;14.00;99.90;;;;;;5011604;28;20122;-78
2023/10/05 03:22:47;;;;;;;0.20;0.20;;;13.90;99.90;;;;;;5011963;28;20026;-77
2023/10/05 03:25:15;;;;;;;2.72;0.75;;;13.90;99.90;;;;;;5011515;28;20067;-76
2023/10/05 03:27:41;;;;;;;0.17;0.17;;;14.00;99.90;;;;;;5011923;28;20123;-77
2023/10/05 03:30:13;;;;;;;0.00;0.00;;;14.00;99.90;;;;;;5011675;28;20529;-77
2023/10/05 03:32:42;;;;;;;0.10;0.10;;;14.00;99.90;;;;;;5000230;28;20029;-77
2023/10/05 03:35:13;;;;;;;0.00;0.00;;;14.10;99.90;;;;;;5011088;28;20386;-77
2023/10/05 03:37:41;;;;;;;0.10;0.10;;;14.20;99.90;;;;;;5011931;28;20113;-77
2023/10/05 03:40:19;;;;;;;0.10;0.10;;;13.90;99.90;;;;;;5011322;28;20038;-77
2023/10/05 03:42:46;;;;;;;1.67;0.95;;;14.00;99.90;;;;;;5013179;28;20033;-77
2023/10/05 03:45:16;;;;;;;0.75;0.75;;;13.90;99.90;;;;;;5011607;28;20034;-77
2023/10/05 03:47:43;;;;;;;4.35;0.57;;;13.80;99.90;;;;;;5027983;28;20026;-77
2023/10/05 03:50:16;;;;;;;0.75;0.25;;;13.80;99.90;;;;;;5028083;28;20116;-77
2023/10/05 03:52:45;;;;;;;2.50;0.55;;;13.80;99.90;;;;;;5011473;28;20037;-77
2023/10/05 03:55:11;;;;;;;0.00;0.00;;;13.90;99.90;;;;;;5011349;28;20032;-77
2023/10/05 03:57:41;;;;;;;1.08;0.65;;;13.90;99.90;;;;;;5011576;28;20044;-77
2023/10/05 04:02:47;;;;;;;2.13;0.20;;;14.00;99.90;;;;;;5028095;28;20034;-77
2023/10/05 04:05:12;;;;;;;0.00;0.00;;;14.00;99.90;;;;;;5012667;28;20045;-77
2023/10/05 04:07:39;;;;;;;1.40;1.17;;;14.00;99.90;;;;;;5012504;28;20034;-77
2023/10/05 04:10:13;;;;;;;0.10;0.10;;;14.00;99.90;;;;;;5011054;28;20053;-77
2023/10/05 04:12:40;;;;;;;0.55;0.55;;;14.20;99.90;;;;;;5012711;28;20120;-77
2023/10/05 04:15:11;;;;;;;0.05;0.05;;;14.20;99.90;;;;;;5012365;28;20026;-77
2023/10/05 04:17:38;;;;;;;0.63;0.50;;;14.20;99.90;;;;;;5011336;28;20030;-76
2023/10/05 04:20:09;;;;;;;0.30;0.20;;;14.00;99.90;;;;;;5012342;28;20538;-77
2023/10/05 04:22:37;;;;;;;0.10;0.10;;;14.00;99.90;;;;;;5011257;28;20033;-77
2023/10/05 04:25:04;;;;;;;7.00;2.55;;;14.00;99.90;;;;;;5012253;28;20046;-76
2023/10/05 04:27:30;;;;;;;1.13;0.32;;;14.00;99.90;;;;;;5012528;28;20026;-77
2023/10/05 04:29:57;;;;;;;0.00;0.00;;;13.90;99.90;;;;;;5011183;28;20115;-77
2023/10/05 04:32:22;;;;;;;1.30;0.90;;;13.90;99.90;;;;;;5012132;28;20030;-77
2023/10/05 04:34:50;;;;;;;0.38;0.38;;;14.00;99.90;;;;;;5027687;28;20092;-77
2023/10/05 04:37:16;;;;;;;0.10;0.10;;;13.90;99.90;;;;;;5012217;28;20038;-77
2023/10/05 04:39:43;;;;;;;0.10;0.10;;;13.90;99.90;;;;;;5012285;28;20029;-77
2023/10/05 04:42:11;;;;;;;0.20;0.20;;;14.00;99.90;;;;;;5012261;28;20092;-77
2023/10/05 04:44:39;;;;;;;0.10;0.10;;;14.00;99.90;;;;;;5012337;28;20120;-77
2023/10/05 04:47:05;;;;;;;0.50;0.50;;;14.10;99.90;;;;;;5015122;28;20030;-77
2023/10/05 04:49:31;;;;;;;0.80;0.52;;;14.00;99.90;;;;;;5014345;28;20136;-77
2023/10/05 04:51:59;;;;;;;1.92;1.00;;;13.90;99.90;;;;;;5015390;28;20030;-76
2023/10/05 04:54:26;;;;;;;0.00;0.00;;;13.80;99.90;;;;;;5015632;28;20379;-77
2023/10/05 04:57:03;;;;;;;0.10;0.10;;;13.80;99.90;;;;;;5015717;28;20041;-77
2023/10/05 04:59:48;;;;;;;0.05;0.05;;;13.90;99.90;;;;;;5015700;28;20081;-77
2023/10/05 05:02:47;;;;;;;5.18;0.57;;;13.90;99.90;;;;;;5015294;28;20030;-76
2023/10/05 05:05:32;;;;;;;0.20;0.20;;;13.80;99.90;;;;;;5014186;28;20065;-78
2023/10/05 05:07:58;;;;;;;0.40;0.40;;;13.80;99.90;;;;;;5013666;28;20032;-77
2023/10/05 05:10:24;;;;;;;0.00;0.00;;;13.70;99.90;;;;;;5015392;28;20042;-76
2023/10/05 05:12:50;;;;;;;0.10;0.10;;;13.80;99.90;;;;;;5015388;28;20109;-77
2023/10/05 05:15:16;;;;;;;0.10;0.10;;;13.80;99.90;;;;;;5015434;28;20483;-77
2023/10/05 05:17:43;;;;;;;0.03;0.03;;;13.80;99.90;;;;;;5015277;28;20018;-77
2023/10/05 05:20:11;;;;;;;0.00;0.00;;;13.70;99.90;;;;;;5015149;28;20474;-77
2023/10/05 05:22:38;;;;;;;12.90;0.95;;;13.80;99.90;;;;;;5013657;28;20433;-77
2023/10/05 05:25:06;;;;;;;0.10;0.10;;;13.90;99.90;;;;;;5015234;28;20112;-77
2023/10/05 05:27:33;;;;;;;0.10;0.10;;;13.80;99.90;;;;;;5014914;28;20026;-77
2023/10/05 05:29:59;;;;;;;0.00;0.00;;;13.80;99.90;;;;;;5015208;28;20084;-77
2023/10/05 05:32:25;;;;;;;0.00;0.00;;;13.90;99.90;;;;;;5014794;28;20444;-77
2023/10/05 05:34:51;;;;;;;0.10;0.10;;;13.90;99.90;;;;;;5015082;28;20038;-77
2023/10/05 05:37:30;;;;;;;18.10;0.85;;;14.00;99.90;;;;;;5013302;28;20076;-77
2023/10/05 05:39:57;;;;;;;0.00;0.00;;;14.10;99.90;;;;;;5013499;28;20125;-77
2023/10/05 05:42:29;;;;;;;0.30;0.30;;;14.10;99.90;;;;;;5029866;28;20080;-77
2023/10/05 05:44:55;;;;;;;0.10;0.10;;;13.90;99.90;;;;;;5015041;28;20048;-77
2023/10/05 05:47:21;;;;;;;2.35;1.08;;;13.80;99.90;;;;;;5014648;28;20100;-77
2023/10/05 05:49:47;;;;;;;2.92;1.58;;;13.80;99.90;;;;;;5014433;28;20033;-77
2023/10/05 05:52:17;;;;;;;6.97;1.90;;;13.70;99.90;;;;;;5014614;28;20466;-77
2023/10/05 05:54:46;;;;;;;0.20;0.20;;;13.60;99.90;;;;;;5014400;28;20080;-77
2023/10/05 05:57:19;;;;;;;0.47;0.47;;;13.60;99.90;;;;;;5013608;28;20033;-77
2023/10/05 05:59:45;;;;;;;0.80;0.13;;;13.60;99.90;;;;;;5014102;28;20030;-77
2023/10/05 06:02:11;;;;;;;0.70;0.40;;;13.60;99.90;;;;;;5014216;28;20389;-77
2023/10/05 06:04:39;;;;;;;0.00;0.00;;;13.60;99.90;;;;;;5013713;28;20061;-77
2023/10/05 06:07:11;;;;;;;0.45;0.45;;;13.60;99.90;;;;;;5014621;28;20021;-77
2023/10/05 06:09:39;;;;;;;0.00;0.00;;;13.70;99.90;;;;;;5014115;28;20045;-77
2023/10/05 06:12:06;;;;;;;1.48;1.38;;;13.70;99.90;;;;;;5014372;28;20046;-77
2023/10/05 06:14:35;;;;;;;0.00;0.00;;;13.60;99.90;;;;;;5013941;28;20030;-77
2023/10/05 06:17:01;;;;;;;1.38;1.23;;;13.60;99.90;;;;;;5014244;28;20028;-77
2023/10/05 06:19:27;;;;;;;2.17;1.02;;;13.90;99.90;;;;;;5013700;28;20049;-77
2023/10/05 06:21:53;;;;;;;7.13;1.45;;;13.80;99.90;;;;;;5029519;28;20033;-78
2023/10/05 06:24:19;;;;;;;1.55;0.70;;;13.80;99.90;;;;;;5014208;28;20386;-78
2023/10/05 06:26:45;;;;;;;0.10;0.10;;;13.90;99.90;;;;;;5013877;28;20034;-77
2023/10/05 06:29:13;;;;;;;0.20;0.20;;;13.90;99.90;;;;;;5013857;28;20034;-77
2023/10/05 06:31:43;;;;;;;0.65;0.50;;;13.80;99.90;;;;;;5013794;28;20081;-78
2023/10/05 06:34:12;;;;;;;0.08;0.08;;;13.80;99.90;;;;;;5013564;28;20437;-77
2023/10/05 06:36:38;;;;;;;0.22;0.22;;;13.90;99.90;;;;;;5029156;28;20503;-77
2023/10/05 06:39:14;;;;;;;0.00;0.00;;;13.80;99.90;;;;;;5013682;28;20018;-77
2023/10/05 06:41:43;;;;;;;25.63;2.50;;;13.90;99.90;;;;;;5013834;28;20034;-78
2023/10/05 06:44:10;;;;;;;0.43;0.43;;;13.80;99.90;;;;;;5012201;28;20076;-77
2023/10/05 06:46:37;;;;;;;4.85;0.95;;;13.90;99.90;;;;;;5013515;28;20029;-78
2023/10/05 06:49:05;;;;;;;1.92;0.40;;;14.00;99.90;;;;;;5013153;28;20030;-77
2023/10/05 06:51:31;;;;;;;0.10;0.10;;;14.20;99.90;;;;;;5013827;28;20379;-77
2023/10/05 06:53:59;;;;;;;1.05;0.93;;;14.00;99.90;;;;;;5013647;28;20040;-76
2023/10/05 06:56:26;;;;;;;0.20;0.20;;;14.20;99.90;;;;;;5013558;28;20026;-77
2023/10/05 06:58:53;;;;;;;0.08;0.08;;;14.20;99.90;;;;;;5013405;28;20502;-77
2023/10/05 07:01:21;;;;;;;0.45;0.45;;;14.30;99.90;;;;;;5013552;28;20482;-77
2023/10/05 07:03:55;;;;;;;0.10;0.10;;;14.30;99.90;;;;;;5028563;28;20038;-77
2023/10/05 07:06:25;;;;;;;1.50;0.95;;;14.20;99.90;;;;;;5013410;28;20032;-76
2023/10/05 07:08:54;;;;;;;0.40;0.40;;;14.20;99.90;;;;;;5012336;28;20133;-77
2023/10/05 07:11:21;;;;;;;0.10;0.10;;;14.30;99.90;;;;;;5013060;28;20088;-77
2023/10/05 07:13:47;;;;;;;8.68;1.55;;;14.30;99.90;;;;;;5013164;28;20107;-77
2023/10/05 07:16:13;;;;;;;0.08;0.08;;;14.30;99.90;;;;;;5013323;28;20494;-77
2023/10/05 07:18:39;;;;;;;0.10;0.10;;;14.40;99.90;;;;;;5012763;28;20100;-77
2023/10/05 07:21:08;;;;;;;1.55;0.55;;;14.60;99.90;;;;;;5012978;28;20442;-77
2023/10/05 07:23:38;;;;;;;1.33;0.82;;;14.80;99.90;;;;;;5013194;28;20033;-77
2023/10/05 07:26:05;;;;;;;0.57;0.57;;;14.90;99.90;;;;;;5013133;28;20034;-77
2023/10/05 07:28:33;;;;;;;1.25;0.82;;;14.70;99.90;;;;;;5012991;28;20113;-77
2023/10/05 07:30:59;;;;;;;0.00;0.00;;;14.70;99.90;;;;;;5009646;28;20054;-77
2023/10/05 07:33:26;;;;;;;0.28;0.28;;;14.70;99.90;;;;;;4997846;28;20018;-77
2023/10/05 07:35:53;;;;;;;0.00;0.00;;;14.60;99.90;;;;;;5011694;28;20033;-77
2023/10/05 07:38:20;;;;;;;0.80;0.65;;;14.60;99.90;;;;;;5011556;28;20489;-77
2023/10/05 07:40:47;;;;;;;0.10;0.10;;;14.60;99.90;;;;;;5012524;28;20038;-78
2023/10/05 07:43:13;;;;;;;0.10;0.10;;;14.60;99.90;;;;;;5012998;28;20032;-77
2023/10/05 07:45:39;;;;;;;0.00;0.00;;;14.80;99.90;;;;;;5012770;28;20034;-77
2023/10/05 07:48:06;;;;;;;1.98;0.73;;;15.10;99.90;;;;;;5012585;28;20145;-77
2023/10/05 07:50:32;;;;;;;0.03;0.03;;;15.20;99.90;;;;;;5012764;28;20041;-77
2023/10/05 07:52:58;;;;;;;0.55;0.55;;;14.90;99.90;;;;;;5012843;28;20014;-76
2023/10/05 07:55:24;;;;;;;14.23;1.60;;;14.70;99.90;;;;;;5012750;28;20382;-77
2023/10/05 07:57:51;;;;;;;3.10;0.63;;;14.70;99.90;;;;;;5012782;28;20034;-77
2023/10/05 08:00:20;;;;;;;14.80;2.08;;;14.80;99.90;;;;;;5012677;28;20548;-78
2023/10/05 08:02:46;;;;;;;0.00;0.00;;;14.70;99.90;;;;;;5012572;28;20026;-77
2023/10/05 08:05:12;;;;;;;1.60;0.65;;;14.70;99.90;;;;;;5012299;28;20026;-77
2023/10/05 08:07:38;;;;;;;1.55;0.80;;;14.70;99.90;;;;;;5011605;28;20029;-77
2023/10/05 08:10:19;;;;;;;2.13;1.23;;;14.90;99.90;;;;;;5012623;28;20485;-78
2023/10/05 08:12:47;;;;;;;6.13;0.93;;;14.90;99.90;;;;;;5017116;28;20038;-78
2023/10/05 08:15:14;;;;;;;0.52;0.30;;;15.00;99.90;;;;;;5011558;28;20021;-77
2023/10/05 08:17:40;;;;;;;9.00;0.20;;;15.00;99.90;;;;;;5012777;28;20038;-77
2023/10/05 08:20:07;;;;;;;0.55;0.52;;;15.20;99.90;;;;;;5010927;28;20041;-77
2023/10/05 08:22:34;;;;;;;0.00;0.00;;;15.40;99.90;;;;;;5016601;28;20488;-77
2023/10/05 08:25:07;;;;;;;0.20;0.20;;;15.30;99.90;;;;;;5016450;28;20116;-78
2023/10/05 08:27:32;;;;;;;0.00;0.00;;;15.20;99.90;;;;;;5016073;28;20030;-77
2023/10/05 08:30:00;;;;;;;0.00;0.00;;;15.40;99.90;;;;;;5031196;28;20497;-77
2023/10/05 08:32:27;;;;;;;0.73;0.73;;;15.50;99.90;;;;;;5016117;28;20530;-77
2023/10/05 08:34:53;;;;;;;0.73;0.32;;;15.40;99.90;;;;;;5016120;28;20471;-77
2023/10/05 08:37:22;;;;;;;0.43;0.20;;;15.20;99.90;;;;;;5015804;28;20028;-77
2023/10/05 08:39:48;;;;;;;0.13;0.13;;;15.30;99.90;;;;;;5016095;28;20176;-77
2023/10/05 08:42:16;;;;;;;1.25;1.13;;;15.50;99.90;;;;;;5015710;28;20125;-77
2023/10/05 08:44:43;;;;;;;0.03;0.03;;;15.40;99.90;;;;;;5015835;28;20037;-76
2023/10/05 08:47:12;;;;;;;0.47;0.47;;;15.20;99.90;;;;;;5014530;28;20390;-77
2023/10/05 08:49:39;;;;;;;7.18;1.80;;;15.40;99.90;;;;;;5015502;28;20030;-76
2023/10/05 08:52:14;;;;;;;1.35;0.88;;;15.30;99.90;;;;;;5015884;28;20029;-76
2023/10/05 08:54:45;;;;;;;8.10;0.38;;;15.30;99.90;;;;;;5015737;28;20453;-77
2023/10/05 08:57:11;;;;;;;0.90;0.90;;;15.40;99.90;;;;;;5015728;28;20030;-77
2023/10/05 08:59:47;;;;;;;0.00;0.00;;;15.50;99.90;;;;;;5015393;28;20037;-77
2023/10/05 09:02:18;;;;;;;1.88;0.20;;;15.30;99.90;;;;;;5015643;28;20100;-78
2023/10/05 09:05:00;;;;;;;0.10;0.10;;;15.40;99.90;;;;;;5015446;28;20102;-77
2023/10/05 09:07:38;;;;;;;0.00;0.00;;;15.30;99.90;;;;;;5015640;28;20033;-78
2023/10/05 09:10:05;;;;;;;2.47;1.63;;;15.50;99.90;;;;;;5015597;28;20465;-77
2023/10/05 09:12:35;;;;;;;0.10;0.10;;;15.50;99.90;;;;;;5015466;28;20034;-77
2023/10/05 09:15:28;;;;;;;0.00;0.00;;;15.50;99.90;;;;;;5015010;28;20029;-76
2023/10/05 09:20:36;;;;;;;9.52;1.45;;;15.60;99.90;;;;;;5014995;28;20033;-77
2023/10/05 09:23:07;;;;;;;1.65;1.17;;;15.40;99.90;;;;;;5015136;28;20033;-76
2023/10/05 09:25:34;;;;;;;0.75;0.73;;;15.40;99.90;;;;;;5015232;28;20076;-76
2023/10/05 09:28:28;;;;;;;0.15;0.15;;;15.30;99.90;;;;;;5014744;28;20030;-76
2023/10/05 09:30:55;;;;;;;0.00;0.00;;;15.40;99.90;;;;;;5015057;28;20041;-77
2023/10/05 09:33:33;;;;;;;0.30;0.20;;;15.50;99.90;;;;;;5014091;28;20110;-77
2023/10/05 09:36:22;;;;;;;3.08;1.77;;;15.40;99.90;;;;;;5014887;28;20117;-77
2023/10/05 09:38:51;;;;;;;2.42;1.00;;;15.60;99.90;;;;;;5014469;28;20030;-77
2023/10/05 09:41:19;;;;;;;4.38;2.63;;;15.50;99.90;;;;;;5014849;28;20030;-77
2023/10/05 09:43:52;;;;;;;2.67;1.30;;;15.50;99.90;;;;;;5014409;28;20112;-77
2023/10/05 09:46:20;;;;;;;0.40;0.40;;;15.50;99.90;;;;;;5014920;28;20110;-76
2023/10/05 09:48:46;;;;;;;0.00;0.00;;;15.50;99.90;;;;;;5014615;28;20057;-76
2023/10/05 09:51:13;;;;;;;2.35;0.80;;;15.70;99.90;;;;;;5014612;28;20053;-76
2023/10/05 09:53:43;;;;;;;4.15;1.42;;;15.70;99.90;;;;;;5021024;28;20429;-76
2023/10/05 09:56:14;;;;;;;6.50;0.65;;;15.60;99.90;;;;;;5034277;28;20035;-77
2023/10/05 09:58:43;;;;;;;1.02;0.75;;;15.70;99.90;;;;;;5033810;28;20025;-77
2023/10/05 10:01:20;;;;;;;0.05;0.05;;;15.90;99.90;;;;;;5029033;28;20109;-77
2023/10/05 10:03:48;;;;;;;0.40;0.38;;;16.20;99.90;;;;;;5017840;28;20360;-77
2023/10/05 10:06:20;;;;;;;0.08;0.08;;;16.20;99.90;;;;;;4993182;28;20129;-77
2023/10/05 10:08:57;;;;;;;1.25;0.52;;;16.50;99.90;;;;;;5020839;28;20041;-76
2023/10/05 10:11:27;;;;;;;0.08;0.08;;;16.50;99.90;;;;;;5012675;28;20104;-77
2023/10/05 10:14:09;;;;;;;0.00;0.00;;;16.60;99.90;;;;;;5014135;28;20045;-77
2023/10/05 10:16:41;;;;;;;1.45;1.10;;;16.70;99.90;;;;;;5014061;28;20413;-77
2023/10/05 10:19:22;;;;;;;0.65;0.45;;;17.00;99.90;;;;;;5013911;28;20026;-77
2023/10/05 10:21:57;;;;;;;0.00;0.00;;;17.30;99.90;;;;;;5014148;28;20026;-77
2023/10/05 10:24:28;;;;;;;1.08;1.00;;;17.10;99.90;;;;;;5013903;28;20058;-76
2023/10/05 10:27:07;;;;;;;0.20;0.20;;;16.70;99.90;;;;;;5013667;28;20049;-77
2023/10/05 10:29:50;;;;;;;0.00;0.00;;;16.90;99.90;;;;;;5013494;28;20034;-77
2023/10/05 10:32:31;;;;;;;0.05;0.05;;;16.80;99.90;;;;;;5013740;28;20046;-76
2023/10/05 10:37:39;;;;;;;0.47;0.43;;;17.50;99.90;;;;;;5013893;28;20025;-77
2023/10/05 10:40:25;;;;;;;4.05;3.00;;;17.40;99.90;;;;;;5013377;28;20061;-76
2023/10/05 10:42:55;;;;;;;0.30;0.30;;;17.30;99.90;;;;;;5013648;28;20030;-77
2023/10/05 10:45:29;;;;;;;1.85;0.73;;;17.40;99.90;;;;;;5011868;28;20033;-76
2023/10/05 10:47:56;;;;;;;6.25;2.45;;;17.60;99.90;;;;;;5013467;28;20033;-77
2023/10/05 10:50:23;;;;;;;0.75;0.35;;;17.30;99.90;;;;;;5013466;28;20048;-76
2023/10/05 10:52:50;;;;;;;10.15;3.88;;;17.70;99.90;;;;;;5013574;28;20018;-76
2023/10/05 10:55:20;;;;;;;1.75;1.17;;;17.60;99.90;;;;;;5013249;28;20032;-76
2023/10/05 10:57:47;;;;;;;0.00;0.00;;;17.50;99.90;;;;;;5013708;28;20031;-77
2023/10/05 11:03:09;;;;;;;1.38;0.43;;;18.30;99.90;;;;;;5013313;28;20103;-76
2023/10/05 11:05:54;;;;;;;7.13;0.85;;;19.10;99.90;;;;;;5013340;28;20034;-77
2023/10/05 11:08:20;;;;;;;0.00;0.00;;;18.70;99.90;;;;;;5013243;28;20152;-77
2023/10/05 11:11:15;;;;;;;0.10;0.10;;;18.80;99.90;;;;;;5012848;28;20513;-76
2023/10/05 11:13:49;;;;;;;0.88;0.82;;;18.20;99.90;;;;;;5013129;28;20034;-77
2023/10/05 11:16:15;;;;;;;0.00;0.00;;;18.20;99.90;;;;;;5013451;28;20455;-77
2023/10/05 11:18:59;;;;;;;0.73;0.25;;;18.30;99.90;;;;;;5012810;28;20050;-77
2023/10/05 11:21:33;;;;;;;0.25;0.25;;;19.20;99.90;;;;;;5013214;28;20117;-76
2023/10/05 11:24:06;;;;;;;0.00;0.00;;;19.30;99.90;;;;;;5012782;28;20397;-77
2023/10/05 11:29:14;;;;;;;0.32;0.25;;;20.50;99.90;;;;;;5012804;28;20028;-77
2023/10/05 11:31:41;;;;;;;0.32;0.32;;;20.10;99.90;;;;;;5012956;28;20041;-76
2023/10/05 11:34:10;;;;;;;1.52;0.25;;;20.20;99.90;;;;;;5012831;28;20486;-77
2023/10/05 11:36:39;;;;;;;1.88;0.20;;;20.10;99.90;;;;;;5012994;28;20037;-78
2023/10/05 11:39:20;;;;;;;0.82;0.30;;;20.40;99.90;;;;;;5012506;28;20105;-78
2023/10/05 11:41:46;;;;;;;5.00;1.47;;;20.30;99.90;;;;;;5011618;28;20159;-77
2023/10/05 11:44:23;;;;;;;0.38;0.38;;;19.60;99.90;;;;;;5011653;28;20275;-77
2023/10/05 11:46:53;;;;;;;0.00;0.00;;;20.10;99.90;;;;;;5012857;28;20030;-77
2023/10/05 11:49:21;;;;;;;0.08;0.08;;;20.30;99.90;;;;;;5012533;28;20041;-77
2023/10/05 11:51:59;;;;;;;4.50;1.30;;;20.30;99.90;;;;;;5012857;28;20029;-77
2023/10/05 11:54:32;;;;;;;0.73;0.47;;;20.30;99.90;;;;;;5012582;28;20034;-77
2023/10/05 11:56:59;;;;;;;0.75;0.63;;;20.90;99.90;;;;;;5015718;28;20046;-77
2023/10/05 11:59:29;;;;;;;0.10;0.10;;;20.50;99.90;;;;;;5016865;28;20072;-77
2023/10/05 12:01:55;;;;;;;1.63;0.57;;;20.30;99.90;;;;;;5016760;28;20032;-77
2023/10/05 12:04:23;;;;;;;0.35;0.28;;;20.20;99.90;;;;;;5016654;28;20018;-77
2023/10/05 12:06:58;;;;;;;0.05;0.05;;;20.30;99.90;;;;;;5016420;28;20022;-77
2023/10/05 12:09:31;;;;;;;1.17;0.68;;;20.40;99.90;;;;;;5016394;28;20113;-77
2023/10/05 12:12:03;;;;;;;0.05;0.00;;;20.20;99.90;;;;;;5016526;28;20458;-77
2023/10/05 12:14:29;;;;;;;0.20;0.20;;;19.80;99.90;;;;;;5016612;28;20030;-77
2023/10/05 12:16:56;;;;;;;1.02;0.70;;;20.30;99.90;;;;;;5015199;28;20054;-77
2023/10/05 12:19:28;;;;;;;0.00;0.00;;;20.10;99.90;;;;;;5016465;28;20030;-77
2023/10/05 12:21:56;;;;;;;1.08;0.38;;;19.80;99.90;;;;;;5031374;28;20033;-77
2023/10/05 12:24:22;;;;;;;0.10;0.10;;;20.20;99.90;;;;;;5016132;28;20100;-77
2023/10/05 12:26:50;;;;;;;0.25;0.25;;;20.20;99.90;;;;;;5016241;28;20061;-77
2023/10/05 12:29:17;;;;;;;8.02;1.08;;;20.00;99.90;;;;;;5016195;28;20014;-77
2023/10/05 12:31:45;;;;;;;1.65;0.68;;;20.60;99.90;;;;;;5016172;28;20060;-77
2023/10/05 12:34:14;;;;;;;43.55;4.22;;;20.30;99.90;;;;;;5014731;28;20080;-78
2023/10/05 12:36:51;;;;;;;0.40;0.40;;;20.80;99.90;;;;;;5015689;28;20099;-78
2023/10/05 12:39:18;;;;;;;4.65;0.57;;;20.60;99.90;;;;;;5015844;28;20076;-77
2023/10/05 12:41:46;;;;;;;0.05;0.05;;;21.30;99.90;;;;;;5031307;28;20510;-78
2023/10/05 12:44:13;;;;;;;0.00;0.00;;;21.30;99.90;;;;;;5015955;28;20022;-77
2023/10/05 12:46:45;;;;;;;0.32;0.30;;;21.40;99.90;;;;;;5016023;28;20378;-78
2023/10/05 12:49:12;;;;;;;0.95;0.85;;;21.30;99.90;;;;;;5015962;28;20032;-77
2023/10/05 12:51:38;;;;;;;10.27;0.68;;;20.40;99.90;;;;;;5015476;28;20125;-76
2023/10/05 12:54:29;;;;;;;1.88;0.85;;;20.60;99.90;;;;;;5015900;28;20029;-77
2023/10/05 12:56:56;;;;;;;6.40;0.75;;;20.30;99.90;;;;;;5015889;28;20034;-78
2023/10/05 12:59:22;;;;;;;0.20;0.20;;;21.00;99.90;;;;;;5015651;28;20095;-77
2023/10/05 13:01:48;;;;;;;4.47;0.32;;;21.10;99.90;;;;;;5015526;28;20029;-77
2023/10/05 13:04:16;;;;;;;5.00;2.10;;;20.80;99.90;;;;;;5015743;28;20494;-77
2023/10/05 13:06:44;;;;;;;0.00;0.00;;;21.20;99.90;;;;;;5015098;28;20037;-77
2023/10/05 13:09:15;;;;;;;0.00;0.00;;;21.20;99.90;;;;;;5015494;28;20041;-77
2023/10/05 13:11:47;;;;;;;0.08;0.08;;;21.40;99.90;;;;;;5015264;28;20180;-77
2023/10/05 13:14:19;;;;;;;0.00;0.00;;;20.60;99.90;;;;;;5015638;28;20048;-78
2023/10/05 13:16:48;;;;;;;0.00;0.00;;;21.40;99.90;;;;;;5015327;28;20116;-77
2023/10/05 13:19:14;;;;;;;0.00;0.00;;;22.10;99.90;;;;;;5015175;28;20018;-77
2023/10/05 13:21:43;;;;;;;0.10;0.10;;;21.90;99.90;;;;;;5014910;28;20049;-78
2023/10/05 13:24:15;;;;;;;0.52;0.22;;;22.20;99.90;;;;;;5015348;28;20025;-77
2023/10/05 13:26:45;;;;;;;0.00;0.00;;;22.30;99.90;;;;;;5030447;28;20038;-78
2023/10/05 13:29:17;;;;;;;2.00;1.23;;;21.90;99.90;;;;;;4997287;28;20109;-78
2023/10/05 13:31:46;;;;;;;0.75;0.43;;;22.60;99.90;;;;;;5014997;28;20037;-78
2023/10/05 13:34:16;;;;;;;0.70;0.38;;;22.60;99.90;;;;;;5014781;28;20025;-78